Arcata, CA

7:29 PM PDT on September 23, 2014 (GMT -0700)
Arcata | Change Station
CLOSE
Current Station
Airport
Location: Arcata,
Elevation: 217 ft
Nearby Weather Stations
Active Advisory: High Surf Advisory

Elev 217 ft 40.98 °N, 124.10 °W | Updated 36 minutes ago

Overcast
Overcast
69 °F
Feels Like 69 °F
N
10
Wind Variable Wind from South

Today
High -- | Low -- °F
--% Chance of Precip.
Yesterday
High -- | Low -- °F
Precip. -- in
7:04 AM 7:11 PM
Waning Crescent, 0% visible
Pressure 29.86 in
Visibility 10.0 miles
Clouds Overcast 6000 ft
Dew Point 62 °F
Humidity 78%
Rainfall 0.00 in
Snow Depth 0 in , 0 in , 0 in
UV 0 out of 12
Pollen 5.40 out of 12
Air Quality Not available.
Flu Activity Not available.
METAR KACV 240153Z AUTO 18009KT 10SM OVC060 21/17 A2985 RMK AO2 SLP111 T02060167

More Conditions Fewer Conditions

Pressure 29.86 in
Visibility 10.0 miles
Clouds Overcast 6000 ft
Dew Point 62 °F
Humidity 78%
Rainfall 0.00 in
Snow Depth 0 in , 0 in , 0 in
UV 0 out of 12
Pollen 5.40 out of 12
Air Quality Not available.
Flu Activity Not available.
METAR KACV 240153Z AUTO 18009KT 10SM OVC060 21/17 A2985 RMK AO2 SLP111 T02060167

More Conditions Fewer Conditions

10-Day Weather Forecast

Almanac

Astronomy

Sep. 23, 2014 Rise Set
Actual Time 7:04 AM PDT 7:11 PM PDT
Civil Twilight 6:37 AM PDT 7:38 PM PDT
Nautical Twilight 6:05 AM PDT 8:10 PM PDT
Astronomical Twilight 5:32 AM PDT 8:43 PM PDT
Moon 6:34 AM PDT (9/23) 6:53 PM PDT (9/23)
Length of Visible Light 13h 01m
Length of Day
12h 06m
Tomorrow will be 2m 42s shorter.
Waning Crescent, 0% of the Moon is Illuminated
Today
Waning Crescent
Sep 24
New
Oct 1
First Quarter
Oct 8
Full
Oct 15
Last Quarter

Today's Extremes

State Highs State Lows

Community

WunderPhotos

Upload Photos

1,755,860 photos uploaded!

Nearby

Snow Depth

Station Depth Elevation
Summit Meadow 0 in 9122 ft
Spratt Creek 0 in 6200 ft
Monitor Pass 0 in 8350 ft
Leavitt Meadows 0 in 7200 ft
Leavitt Lake 0 in 9400 ft

Earthquake Activity

City Distance Mag. Time & Date
No recent earthquake activity has been reported nearby.
Minimum magnitude displayed is 2.5.

Coastal Water Temperatures

Place Temperature
North Spit, CA 62.1 °F
Crescent City, CA 64.0 °F

Nearby Weather Stations